KOLG

Details ICAO KOLG
Name SOLON SPRINGS MUNICIPAL
Region United States
Timezone America/Chicago (UTC-6.0)
Plans Departing 0
Arriving 1
Stats Elevation 1,102 ft / 336 m (AMSL)
Location 46.314751° -91.816377°
Runways 1
Magnetic Variation 1.174° W
Sunrise 2017-12-12 13:42:51 UTC / 2017-12-12 07:42:51 Local
Sunset 2017-12-12 22:22:14 UTC / 2017-12-12 16:22:14 Local
Advertisement - Login to hide

Runways

ID Width Length Bearing (true) Bearing (mag) Surface Threshold Offset Overrun Length
01 60 ft / 18 m 3,100 ft / 945 m 7.69° 8.86° Asphalt 0 ft / 0 m 0 ft / 0 m
19 60 ft / 18 m 3,100 ft / 945 m 187.70° 188.87° Asphalt 0 ft / 0 m 0 ft / 0 m

Map

Weather


0- 5 10 15 20 25 30 35+ Temperature / ° C

Clouds and Precipitation
Forecast for 2017-12-12 12:00 UTC. Updated an hour ago

Ground ~20,000 ft ~40,000 ft Winds

METAR

KOLG 120815Z AUTO 31004KT 10SM CLR M15/M18 A3016 RMK AO1

TAF

Not found

Frequencies

Unicom 122.90 MHz CTAF
Approach 125.45 MHz DULUTH APP/DEP
Warning: Do not use this data for real-world aviation or navigation. No guarantee of current accuracy is given.